This is the latest recevied weather packets stored in our database for station/object IU1JVO-13. If no packets are shown the sender has not sent any weather packets the latest 1 day(s).
| Time | Temp. | Humidity | Pressure | Rain* | Wind** | Luminosity | Snow |
|---|---|---|---|---|---|---|---|
| 1778084557 | 18.33° C | 57% | 1009.2 hPa | 0 mm | - | - | - |
| 1778083359 | 18.33° C | 58% | 1008.9 hPa | 0 mm | - | - | - |
| 1778082760 | 18.33° C | 55% | 1008.9 hPa | 0 mm | - | - | - |
| 1778082158 | 18.89° C | 54% | 1009.1 hPa | 0 mm | - | - | - |
| 1778080357 | 20° C | 40% | 1009.4 hPa | 0 mm | - | - | - |
| 1778078557 | 19.44° C | 38% | 1009.2 hPa | 0 mm | - | - | - |
| 1778077958 | 18.33° C | 40% | 1009.3 hPa | 0 mm | - | - | - |
| 1778074361 | 20° C | 38% | 1009.1 hPa | 0 mm | - | - | - |
| 1778073157 | 19.44° C | 38% | 1009.4 hPa | 0 mm | - | - | - |
| 1778071955 | 18.33° C | 58% | 1009.4 hPa | 0 mm | - | - | - |
| 1778070153 | 16.67° C | 65% | 1009 hPa | 0 mm | - | - | - |
| 1778068352 | 17.22° C | 64% | 1009 hPa | 0 mm | - | - | - |
| 1778065357 | 17.22° C | 64% | 1008.7 hPa | 0 mm | - | - | - |
| 1778064752 | 17.22° C | 61% | 1008.9 hPa | 0 mm | - | - | - |
| 1778064153 | 17.22° C | 62% | 1009.3 hPa | 0 mm | - | - | - |
| 1778061751 | 15° C | 71% | 1009.2 hPa | 0 mm | - | - | - |
| 1778059951 | 15° C | 70% | 1009.8 hPa | 0 mm | - | - | - |
| 1778059351 | 14.44° C | 74% | 1009.8 hPa | 0 mm | - | - | - |
| 1778056352 | 12.22° C | 85% | 1009.8 hPa | 0.51 mm | - | - | - |
| 1778055749 | 11.67° C | 86% | 1009.7 hPa | 0.51 mm | - | - | - |
| 1778053949 | 11.11° C | 90% | 1009.8 hPa | 0.51 mm | - | - | - |
| 1778053349 | 11.11° C | 89% | 1009.8 hPa | 0.51 mm | - | - | - |
| 1778052751 | 11.11° C | 89% | 1009.5 hPa | 0.25 mm | - | - | - |
| 1778052149 | 11.11° C | 89% | 1009.6 hPa | 0 mm | - | - | - |
| 1778050349 | 11.11° C | 93% | 1009.5 hPa | 0 mm | - | - | - |
* Rain latest hour (hover to see other rain measurements)
** Current wind speed in m/s (hover to see current wind gust speed)